sensor_id;sensor_type;location;lat;lon;timestamp;temperature;humidity
31747;DHT22;18319;48.974;8.462;2023-02-28T00:01:31;-0.60;99.90
31747;DHT22;18319;48.974;8.462;2023-02-28T00:03:58;-0.70;99.90
31747;DHT22;18319;48.974;8.462;2023-02-28T00:06:25;-0.60;99.90
31747;DHT22;18319;48.974;8.462;2023-02-28T00:08:52;-0.60;99.90
31747;DHT22;18319;48.974;8.462;2023-02-28T00:11:20;-0.70;99.90
31747;DHT22;18319;48.974;8.462;2023-02-28T00:13:49;-0.60;99.90
31747;DHT22;18319;48.974;8.462;2023-02-28T00:16:17;-0.70;99.90
31747;DHT22;18319;48.974;8.462;2023-02-28T00:18:45;-0.60;99.90
31747;DHT22;18319;48.974;8.462;2023-02-28T00:21:13;-0.70;99.90
31747;DHT22;18319;48.974;8.462;2023-02-28T00:23:40;-0.70;99.90
31747;DHT22;18319;48.974;8.462;2023-02-28T00:26:07;-0.70;99.90
31747;DHT22;18319;48.974;8.462;2023-02-28T00:28:34;-0.70;99.90
31747;DHT22;18319;48.974;8.462;2023-02-28T00:31:02;-0.70;99.90
31747;DHT22;18319;48.974;8.462;2023-02-28T00:33:29;-0.60;99.90
31747;DHT22;18319;48.974;8.462;2023-02-28T00:36:02;-0.70;99.90
31747;DHT22;18319;48.974;8.462;2023-02-28T00:38:29;-0.70;99.90
31747;DHT22;18319;48.974;8.462;2023-02-28T00:40:56;-0.70;99.90
31747;DHT22;18319;48.974;8.462;2023-02-28T00:43:24;-0.70;99.90
31747;DHT22;18319;48.974;8.462;2023-02-28T00:45:50;-0.70;99.90
31747;DHT22;18319;48.974;8.462;2023-02-28T00:48:19;-0.70;99.90
31747;DHT22;18319;48.974;8.462;2023-02-28T00:50:48;-0.70;99.90
31747;DHT22;18319;48.974;8.462;2023-02-28T00:53:15;-0.70;99.90
31747;DHT22;18319;48.974;8.462;2023-02-28T00:55:42;-0.70;99.90
31747;DHT22;18319;48.974;8.462;2023-02-28T00:58:09;-0.80;99.90
31747;DHT22;18319;48.974;8.462;2023-02-28T01:00:36;-0.80;99.90
31747;DHT22;18319;48.974;8.462;2023-02-28T01:03:02;-0.80;99.90
31747;DHT22;18319;48.974;8.462;2023-02-28T01:05:30;-0.80;99.90
31747;DHT22;18319;48.974;8.462;2023-02-28T01:07:57;-0.80;99.90
31747;DHT22;18319;48.974;8.462;2023-02-28T01:10:25;-0.90;99.90
31747;DHT22;18319;48.974;8.462;2023-02-28T01:12:51;-0.90;99.90
31747;DHT22;18319;48.974;8.462;2023-02-28T01:15:18;-0.90;99.90
31747;DHT22;18319;48.974;8.462;2023-02-28T01:17:45;-0.90;99.90
31747;DHT22;18319;48.974;8.462;2023-02-28T01:20:12;-1.00;99.90
31747;DHT22;18319;48.974;8.462;2023-02-28T01:22:40;-0.90;99.90
31747;DHT22;18319;48.974;8.462;2023-02-28T01:25:08;-0.90;99.90
31747;DHT22;18319;48.974;8.462;2023-02-28T01:27:34;-0.90;99.90
31747;DHT22;18319;48.974;8.462;2023-02-28T01:30:01;-1.00;99.90
31747;DHT22;18319;48.974;8.462;2023-02-28T01:32:28;-1.00;99.90
31747;DHT22;18319;48.974;8.462;2023-02-28T01:34:55;-1.00;99.90
31747;DHT22;18319;48.974;8.462;2023-02-28T01:37:22;-1.00;99.90
31747;DHT22;18319;48.974;8.462;2023-02-28T01:39:50;-1.00;99.90
31747;DHT22;18319;48.974;8.462;2023-02-28T01:42:16;-1.10;99.90
31747;DHT22;18319;48.974;8.462;2023-02-28T01:45:02;-1.10;99.90
31747;DHT22;18319;48.974;8.462;2023-02-28T01:47:32;-1.10;99.90
31747;DHT22;18319;48.974;8.462;2023-02-28T01:50:01;-1.00;99.90
31747;DHT22;18319;48.974;8.462;2023-02-28T01:52:29;-1.00;99.90
31747;DHT22;18319;48.974;8.462;2023-02-28T01:54:59;-1.10;99.90
31747;DHT22;18319;48.974;8.462;2023-02-28T01:57:30;-1.10;99.90
31747;DHT22;18319;48.974;8.462;2023-02-28T02:00:06;-1.10;99.90
31747;DHT22;18319;48.974;8.462;2023-02-28T02:02:34;-1.10;99.90
31747;DHT22;18319;48.974;8.462;2023-02-28T02:05:04;-1.10;99.90
31747;DHT22;18319;48.974;8.462;2023-02-28T02:07:34;-1.10;99.90
31747;DHT22;18319;48.974;8.462;2023-02-28T02:10:09;-1.10;99.90
31747;DHT22;18319;48.974;8.462;2023-02-28T02:12:56;-1.10;99.90
31747;DHT22;18319;48.974;8.462;2023-02-28T02:15:33;-1.10;99.90
31747;DHT22;18319;48.974;8.462;2023-02-28T02:18:04;-1.20;99.90
31747;DHT22;18319;48.974;8.462;2023-02-28T02:20:56;-1.20;99.90
31747;DHT22;18319;48.974;8.462;2023-02-28T02:29:39;-1.10;99.90
31747;DHT22;18319;48.974;8.462;2023-02-28T02:32:41;-1.20;99.90
31747;DHT22;18319;48.974;8.462;2023-02-28T02:35:15;-1.10;99.90
31747;DHT22;18319;48.974;8.462;2023-02-28T02:37:47;-1.20;99.90
31747;DHT22;18319;48.974;8.462;2023-02-28T02:40:20;-1.20;99.90
31747;DHT22;18319;48.974;8.462;2023-02-28T02:42:51;-1.20;99.90
31747;DHT22;18319;48.974;8.462;2023-02-28T02:45:25;-1.20;99.90
31747;DHT22;18319;48.974;8.462;2023-02-28T02:47:54;-1.20;99.90
31747;DHT22;18319;48.974;8.462;2023-02-28T02:50:26;-1.20;99.90
31747;DHT22;18319;48.974;8.462;2023-02-28T02:52:57;-1.20;99.90
31747;DHT22;18319;48.974;8.462;2023-02-28T02:55:25;-1.20;99.90
31747;DHT22;18319;48.974;8.462;2023-02-28T02:57:56;-1.20;99.90
31747;DHT22;18319;48.974;8.462;2023-02-28T03:00:28;-1.20;99.90
31747;DHT22;18319;48.974;8.462;2023-02-28T03:02:57;-1.20;99.90
31747;DHT22;18319;48.974;8.462;2023-02-28T03:05:26;-1.10;99.90
31747;DHT22;18319;48.974;8.462;2023-02-28T03:07:54;-1.00;99.90
31747;DHT22;18319;48.974;8.462;2023-02-28T03:10:31;-0.90;99.90
31747;DHT22;18319;48.974;8.462;2023-02-28T03:15:57;-0.70;99.90
31747;DHT22;18319;48.974;8.462;2023-02-28T03:18:31;-0.70;99.90
31747;DHT22;18319;48.974;8.462;2023-02-28T03:21:08;-0.60;99.90
31747;DHT22;18319;48.974;8.462;2023-02-28T03:23:40;-0.50;99.90
31747;DHT22;18319;48.974;8.462;2023-02-28T03:26:16;-0.40;99.90
31747;DHT22;18319;48.974;8.462;2023-02-28T03:28:50;-0.30;99.90
31747;DHT22;18319;48.974;8.462;2023-02-28T03:31:21;-0.30;99.90
31747;DHT22;18319;48.974;8.462;2023-02-28T03:33:54;-0.20;99.90
31747;DHT22;18319;48.974;8.462;2023-02-28T03:36:26;-0.10;99.90
31747;DHT22;18319;48.974;8.462;2023-02-28T03:38:57;-0.10;99.90
31747;DHT22;18319;48.974;8.462;2023-02-28T03:41:31;-0.10;99.90
31747;DHT22;18319;48.974;8.462;2023-02-28T03:44:02;-0.10;99.90
31747;DHT22;18319;48.974;8.462;2023-02-28T03:46:33;0.00;99.90
31747;DHT22;18319;48.974;8.462;2023-02-28T03:49:06;0.00;99.90
31747;DHT22;18319;48.974;8.462;2023-02-28T03:51:38;0.00;99.90
31747;DHT22;18319;48.974;8.462;2023-02-28T03:54:10;0.10;99.90
31747;DHT22;18319;48.974;8.462;2023-02-28T03:56:42;0.10;99.90
31747;DHT22;18319;48.974;8.462;2023-02-28T03:59:13;0.10;99.90
31747;DHT22;18319;48.974;8.462;2023-02-28T04:01:43;0.20;99.90
31747;DHT22;18319;48.974;8.462;2023-02-28T04:04:11;0.20;99.90
31747;DHT22;18319;48.974;8.462;2023-02-28T04:06:41;0.20;99.90
31747;DHT22;18319;48.974;8.462;2023-02-28T04:09:10;0.20;99.90
31747;DHT22;18319;48.974;8.462;2023-02-28T04:11:38;0.20;99.90
31747;DHT22;18319;48.974;8.462;2023-02-28T04:14:07;0.30;99.90
31747;DHT22;18319;48.974;8.462;2023-02-28T04:16:36;0.30;99.90
31747;DHT22;18319;48.974;8.462;2023-02-28T04:19:04;0.30;99.90
31747;DHT22;18319;48.974;8.462;2023-02-28T04:21:34;0.20;99.90
31747;DHT22;18319;48.974;8.462;2023-02-28T04:24:03;0.30;99.90
31747;DHT22;18319;48.974;8.462;2023-02-28T04:26:30;0.20;99.90
31747;DHT22;18319;48.974;8.462;2023-02-28T04:28:58;0.20;99.90
31747;DHT22;18319;48.974;8.462;2023-02-28T04:31:25;0.20;99.90
31747;DHT22;18319;48.974;8.462;2023-02-28T04:33:51;0.20;99.90
31747;DHT22;18319;48.974;8.462;2023-02-28T04:36:18;0.10;99.90
31747;DHT22;18319;48.974;8.462;2023-02-28T04:38:46;0.10;99.90
31747;DHT22;18319;48.974;8.462;2023-02-28T04:41:14;0.00;99.90
31747;DHT22;18319;48.974;8.462;2023-02-28T04:43:41;-0.10;99.90
31747;DHT22;18319;48.974;8.462;2023-02-28T04:46:08;-0.10;99.90
31747;DHT22;18319;48.974;8.462;2023-02-28T04:48:37;-0.20;99.90
31747;DHT22;18319;48.974;8.462;2023-02-28T04:51:06;-0.30;99.90
31747;DHT22;18319;48.974;8.462;2023-02-28T04:53:33;-0.30;99.90
31747;DHT22;18319;48.974;8.462;2023-02-28T04:56:00;-0.30;99.90
31747;DHT22;18319;48.974;8.462;2023-02-28T04:58:28;-0.20;99.90
31747;DHT22;18319;48.974;8.462;2023-02-28T05:01:01;-0.30;99.90
31747;DHT22;18319;48.974;8.462;2023-02-28T05:03:28;-0.30;99.90
31747;DHT22;18319;48.974;8.462;2023-02-28T05:05:55;-0.30;99.90
31747;DHT22;18319;48.974;8.462;2023-02-28T05:08:22;-0.30;99.90
31747;DHT22;18319;48.974;8.462;2023-02-28T05:10:48;-0.30;99.90
31747;DHT22;18319;48.974;8.462;2023-02-28T05:13:15;-0.40;99.90
31747;DHT22;18319;48.974;8.462;2023-02-28T05:15:43;-0.50;99.90
31747;DHT22;18319;48.974;8.462;2023-02-28T05:18:10;-0.60;99.90
31747;DHT22;18319;48.974;8.462;2023-02-28T05:20:37;-0.70;99.90
31747;DHT22;18319;48.974;8.462;2023-02-28T05:23:03;-0.70;99.90
31747;DHT22;18319;48.974;8.462;2023-02-28T05:25:30;-0.70;99.90
31747;DHT22;18319;48.974;8.462;2023-02-28T05:27:57;-0.80;99.90
31747;DHT22;18319;48.974;8.462;2023-02-28T05:30:24;-0.80;99.90
31747;DHT22;18319;48.974;8.462;2023-02-28T05:32:52;-0.80;99.90
31747;DHT22;18319;48.974;8.462;2023-02-28T05:35:19;-0.80;99.90
31747;DHT22;18319;48.974;8.462;2023-02-28T05:37:45;-0.70;99.90
31747;DHT22;18319;48.974;8.462;2023-02-28T05:40:12;-0.70;99.90
31747;DHT22;18319;48.974;8.462;2023-02-28T05:42:41;-0.70;99.90
31747;DHT22;18319;48.974;8.462;2023-02-28T05:45:08;-0.70;99.90
31747;DHT22;18319;48.974;8.462;2023-02-28T05:47:35;-0.70;99.90
31747;DHT22;18319;48.974;8.462;2023-02-28T05:50:05;-0.60;99.90
31747;DHT22;18319;48.974;8.462;2023-02-28T05:52:32;-0.70;99.90
31747;DHT22;18319;48.974;8.462;2023-02-28T05:54:59;-0.60;99.90
31747;DHT22;18319;48.974;8.462;2023-02-28T05:57:25;-0.50;99.90
31747;DHT22;18319;48.974;8.462;2023-02-28T05:59:52;-0.50;99.90
31747;DHT22;18319;48.974;8.462;2023-02-28T06:02:19;-0.40;99.90
31747;DHT22;18319;48.974;8.462;2023-02-28T06:04:46;-0.30;99.90
31747;DHT22;18319;48.974;8.462;2023-02-28T06:07:14;-0.20;99.90
31747;DHT22;18319;48.974;8.462;2023-02-28T06:09:42;-0.20;99.90
31747;DHT22;18319;48.974;8.462;2023-02-28T06:12:10;-0.10;99.90
31747;DHT22;18319;48.974;8.462;2023-02-28T06:14:37;-0.10;99.90
31747;DHT22;18319;48.974;8.462;2023-02-28T06:17:04;-0.10;99.90
31747;DHT22;18319;48.974;8.462;2023-02-28T06:19:31;0.00;99.90
31747;DHT22;18319;48.974;8.462;2023-02-28T06:21:58;0.00;99.90
31747;DHT22;18319;48.974;8.462;2023-02-28T06:24:26;0.10;99.90
31747;DHT22;18319;48.974;8.462;2023-02-28T06:26:54;0.00;99.90
31747;DHT22;18319;48.974;8.462;2023-02-28T06:29:21;0.10;99.90
31747;DHT22;18319;48.974;8.462;2023-02-28T06:31:48;0.10;99.90
31747;DHT22;18319;48.974;8.462;2023-02-28T06:34:16;0.20;99.90
31747;DHT22;18319;48.974;8.462;2023-02-28T06:36:43;0.20;99.90
31747;DHT22;18319;48.974;8.462;2023-02-28T06:39:10;0.20;99.90
31747;DHT22;18319;48.974;8.462;2023-02-28T06:41:38;0.30;99.90
31747;DHT22;18319;48.974;8.462;2023-02-28T06:44:08;0.30;99.90
31747;DHT22;18319;48.974;8.462;2023-02-28T06:46:38;0.30;99.90
31747;DHT22;18319;48.974;8.462;2023-02-28T06:49:06;0.40;99.90
31747;DHT22;18319;48.974;8.462;2023-02-28T06:51:35;0.50;99.90
31747;DHT22;18319;48.974;8.462;2023-02-28T06:54:02;0.60;99.90
31747;DHT22;18319;48.974;8.462;2023-02-28T06:56:29;0.70;99.90
31747;DHT22;18319;48.974;8.462;2023-02-28T06:58:57;0.80;99.90
31747;DHT22;18319;48.974;8.462;2023-02-28T07:01:24;0.70;99.90
31747;DHT22;18319;48.974;8.462;2023-02-28T07:03:51;0.90;99.90
31747;DHT22;18319;48.974;8.462;2023-02-28T07:06:18;0.80;99.90
31747;DHT22;18319;48.974;8.462;2023-02-28T07:08:47;0.80;99.90
31747;DHT22;18319;48.974;8.462;2023-02-28T07:11:14;0.80;99.90
31747;DHT22;18319;48.974;8.462;2023-02-28T07:13:41;1.00;99.90
31747;DHT22;18319;48.974;8.462;2023-02-28T07:16:10;0.90;99.90
31747;DHT22;18319;48.974;8.462;2023-02-28T07:18:37;0.90;99.90
31747;DHT22;18319;48.974;8.462;2023-02-28T07:21:06;0.90;99.90
31747;DHT22;18319;48.974;8.462;2023-02-28T07:23:34;0.90;99.90
31747;DHT22;18319;48.974;8.462;2023-02-28T07:26:01;1.00;99.90
31747;DHT22;18319;48.974;8.462;2023-02-28T07:28:28;1.10;99.90
31747;DHT22;18319;48.974;8.462;2023-02-28T07:30:54;1.00;99.90
31747;DHT22;18319;48.974;8.462;2023-02-28T07:33:23;1.00;99.90
31747;DHT22;18319;48.974;8.462;2023-02-28T07:35:50;1.10;99.90
31747;DHT22;18319;48.974;8.462;2023-02-28T07:38:17;1.20;99.90
31747;DHT22;18319;48.974;8.462;2023-02-28T07:40:43;1.20;99.90
31747;DHT22;18319;48.974;8.462;2023-02-28T07:43:10;1.20;99.90
31747;DHT22;18319;48.974;8.462;2023-02-28T07:45:37;1.40;99.90
31747;DHT22;18319;48.974;8.462;2023-02-28T07:48:04;1.40;99.90
31747;DHT22;18319;48.974;8.462;2023-02-28T07:50:32;1.40;99.90
31747;DHT22;18319;48.974;8.462;2023-02-28T07:53:00;1.50;99.90
31747;DHT22;18319;48.974;8.462;2023-02-28T07:55:27;1.50;99.90
31747;DHT22;18319;48.974;8.462;2023-02-28T07:57:54;1.50;99.90
31747;DHT22;18319;48.974;8.462;2023-02-28T08:00:21;1.40;99.90
31747;DHT22;18319;48.974;8.462;2023-02-28T08:02:48;1.40;99.90
31747;DHT22;18319;48.974;8.462;2023-02-28T08:05:15;1.50;99.90
31747;DHT22;18319;48.974;8.462;2023-02-28T08:07:44;1.60;99.90
31747;DHT22;18319;48.974;8.462;2023-02-28T08:10:11;1.50;99.90
31747;DHT22;18319;48.974;8.462;2023-02-28T08:12:37;1.70;99.90
31747;DHT22;18319;48.974;8.462;2023-02-28T08:15:05;1.80;99.90
31747;DHT22;18319;48.974;8.462;2023-02-28T08:17:32;1.90;99.90
31747;DHT22;18319;48.974;8.462;2023-02-28T08:19:59;1.70;99.90
31747;DHT22;18319;48.974;8.462;2023-02-28T08:22:25;1.70;99.90
31747;DHT22;18319;48.974;8.462;2023-02-28T08:24:53;1.80;99.90
31747;DHT22;18319;48.974;8.462;2023-02-28T08:27:20;1.90;99.90
31747;DHT22;18319;48.974;8.462;2023-02-28T08:29:47;2.00;99.90
31747;DHT22;18319;48.974;8.462;2023-02-28T08:32:14;2.10;99.90
31747;DHT22;18319;48.974;8.462;2023-02-28T08:34:40;2.10;99.90
31747;DHT22;18319;48.974;8.462;2023-02-28T08:37:07;2.20;99.90
31747;DHT22;18319;48.974;8.462;2023-02-28T08:39:34;2.20;99.90
31747;DHT22;18319;48.974;8.462;2023-02-28T08:42:04;2.30;99.90
31747;DHT22;18319;48.974;8.462;2023-02-28T08:44:30;2.30;99.90
31747;DHT22;18319;48.974;8.462;2023-02-28T08:46:57;2.20;99.90
31747;DHT22;18319;48.974;8.462;2023-02-28T08:49:24;2.10;99.90
31747;DHT22;18319;48.974;8.462;2023-02-28T08:51:51;2.20;99.90
31747;DHT22;18319;48.974;8.462;2023-02-28T08:54:18;2.30;99.90
31747;DHT22;18319;48.974;8.462;2023-02-28T08:56:45;2.50;99.90
31747;DHT22;18319;48.974;8.462;2023-02-28T08:59:14;2.50;99.90
31747;DHT22;18319;48.974;8.462;2023-02-28T09:01:41;2.70;99.90
31747;DHT22;18319;48.974;8.462;2023-02-28T09:04:09;2.70;99.90
31747;DHT22;18319;48.974;8.462;2023-02-28T09:06:37;2.90;99.90
31747;DHT22;18319;48.974;8.462;2023-02-28T09:09:04;2.80;99.90
31747;DHT22;18319;48.974;8.462;2023-02-28T09:11:33;3.10;99.90
31747;DHT22;18319;48.974;8.462;2023-02-28T09:13:59;3.10;99.90
31747;DHT22;18319;48.974;8.462;2023-02-28T09:16:30;3.00;99.90
31747;DHT22;18319;48.974;8.462;2023-02-28T09:18:57;3.10;99.90
31747;DHT22;18319;48.974;8.462;2023-02-28T09:21:24;3.20;99.90
31747;DHT22;18319;48.974;8.462;2023-02-28T09:23:51;3.40;99.90
31747;DHT22;18319;48.974;8.462;2023-02-28T09:26:19;3.40;99.90
31747;DHT22;18319;48.974;8.462;2023-02-28T09:28:48;3.30;99.90
31747;DHT22;18319;48.974;8.462;2023-02-28T09:31:17;3.10;99.90
31747;DHT22;18319;48.974;8.462;2023-02-28T09:33:47;3.20;99.90
31747;DHT22;18319;48.974;8.462;2023-02-28T09:36:14;3.40;99.90
31747;DHT22;18319;48.974;8.462;2023-02-28T09:38:41;3.30;99.90
31747;DHT22;18319;48.974;8.462;2023-02-28T09:41:12;3.20;99.90
31747;DHT22;18319;48.974;8.462;2023-02-28T09:43:43;3.40;99.90
31747;DHT22;18319;48.974;8.462;2023-02-28T09:46:18;3.30;99.90
31747;DHT22;18319;48.974;8.462;2023-02-28T09:48:50;3.20;99.90
31747;DHT22;18319;48.974;8.462;2023-02-28T09:51:28;3.30;99.90
31747;DHT22;18319;48.974;8.462;2023-02-28T09:53:56;3.30;99.90
31747;DHT22;18319;48.974;8.462;2023-02-28T09:56:26;3.20;99.90
31747;DHT22;18319;48.974;8.462;2023-02-28T09:58:58;3.20;99.90
31747;DHT22;18319;48.974;8.462;2023-02-28T10:01:31;3.20;99.90
31747;DHT22;18319;48.974;8.462;2023-02-28T10:04:08;3.30;99.90
31747;DHT22;18319;48.974;8.462;2023-02-28T10:06:43;3.40;99.90
31747;DHT22;18319;48.974;8.462;2023-02-28T10:09:15;3.70;99.90
31747;DHT22;18319;48.974;8.462;2023-02-28T10:11:44;3.50;99.90
31747;DHT22;18319;48.974;8.462;2023-02-28T10:14:15;3.70;99.90
31747;DHT22;18319;48.974;8.462;2023-02-28T10:16:45;3.60;99.90
31747;DHT22;18319;48.974;8.462;2023-02-28T10:19:21;3.70;99.90
31747;DHT22;18319;48.974;8.462;2023-02-28T10:21:54;3.40;99.90
31747;DHT22;18319;48.974;8.462;2023-02-28T10:24:27;3.50;99.90
31747;DHT22;18319;48.974;8.462;2023-02-28T10:26:59;3.70;99.90
31747;DHT22;18319;48.974;8.462;2023-02-28T10:29:27;3.70;99.90
31747;DHT22;18319;48.974;8.462;2023-02-28T10:31:55;3.70;99.90
31747;DHT22;18319;48.974;8.462;2023-02-28T10:34:24;3.80;99.90
31747;DHT22;18319;48.974;8.462;2023-02-28T10:36:51;3.60;99.90
31747;DHT22;18319;48.974;8.462;2023-02-28T10:39:37;3.60;99.90
31747;DHT22;18319;48.974;8.462;2023-02-28T10:42:05;3.60;99.90
31747;DHT22;18319;48.974;8.462;2023-02-28T10:44:44;3.60;99.90
31747;DHT22;18319;48.974;8.462;2023-02-28T10:47:14;3.70;99.90
31747;DHT22;18319;48.974;8.462;2023-02-28T10:49:47;3.80;99.90
31747;DHT22;18319;48.974;8.462;2023-02-28T10:52:14;3.90;99.90
31747;DHT22;18319;48.974;8.462;2023-02-28T10:55:15;4.00;99.90
31747;DHT22;18319;48.974;8.462;2023-02-28T10:57:42;4.10;99.90
31747;DHT22;18319;48.974;8.462;2023-02-28T11:00:16;4.10;99.90
31747;DHT22;18319;48.974;8.462;2023-02-28T11:02:44;4.30;99.90
31747;DHT22;18319;48.974;8.462;2023-02-28T11:05:30;4.40;99.90
31747;DHT22;18319;48.974;8.462;2023-02-28T11:08:05;4.40;99.90
31747;DHT22;18319;48.974;8.462;2023-02-28T11:10:33;4.50;99.90
31747;DHT22;18319;48.974;8.462;2023-02-28T11:13:01;4.40;99.90
31747;DHT22;18319;48.974;8.462;2023-02-28T11:15:30;4.40;99.90
31747;DHT22;18319;48.974;8.462;2023-02-28T11:18:00;4.50;99.90
31747;DHT22;18319;48.974;8.462;2023-02-28T11:20:30;4.40;99.90
31747;DHT22;18319;48.974;8.462;2023-02-28T11:22:59;4.50;99.90
31747;DHT22;18319;48.974;8.462;2023-02-28T11:25:30;4.50;99.90
31747;DHT22;18319;48.974;8.462;2023-02-28T11:27:59;4.60;99.90
31747;DHT22;18319;48.974;8.462;2023-02-28T11:30:31;4.50;99.90
31747;DHT22;18319;48.974;8.462;2023-02-28T11:32:59;4.60;99.80
31747;DHT22;18319;48.974;8.462;2023-02-28T11:35:30;4.70;99.40
31747;DHT22;18319;48.974;8.462;2023-02-28T11:37:58;4.70;99.10
31747;DHT22;18319;48.974;8.462;2023-02-28T11:40:38;4.70;99.00
31747;DHT22;18319;48.974;8.462;2023-02-28T11:43:16;4.80;98.30
31747;DHT22;18319;48.974;8.462;2023-02-28T11:46:06;4.90;98.50
31747;DHT22;18319;48.974;8.462;2023-02-28T11:48:43;5.00;98.60
31747;DHT22;18319;48.974;8.462;2023-02-28T11:51:19;5.10;98.30
31747;DHT22;18319;48.974;8.462;2023-02-28T11:53:57;5.20;96.90
31747;DHT22;18319;48.974;8.462;2023-02-28T11:56:30;5.10;97.40
31747;DHT22;18319;48.974;8.462;2023-02-28T11:59:12;5.00;96.80
31747;DHT22;18319;48.974;8.462;2023-02-28T12:01:58;4.90;97.00
31747;DHT22;18319;48.974;8.462;2023-02-28T12:04:34;5.00;97.00
31747;DHT22;18319;48.974;8.462;2023-02-28T12:07:11;5.00;96.60
31747;DHT22;18319;48.974;8.462;2023-02-28T12:09:51;5.20;96.10
31747;DHT22;18319;48.974;8.462;2023-02-28T12:12:26;5.30;96.30
31747;DHT22;18319;48.974;8.462;2023-02-28T12:15:17;5.30;96.20
31747;DHT22;18319;48.974;8.462;2023-02-28T12:17:55;5.20;96.20
31747;DHT22;18319;48.974;8.462;2023-02-28T12:20:33;5.20;95.80
31747;DHT22;18319;48.974;8.462;2023-02-28T12:23:14;5.10;96.00
31747;DHT22;18319;48.974;8.462;2023-02-28T12:26:02;5.00;96.40
31747;DHT22;18319;48.974;8.462;2023-02-28T12:28:32;4.90;95.90
31747;DHT22;18319;48.974;8.462;2023-02-28T12:31:03;4.50;95.90
31747;DHT22;18319;48.974;8.462;2023-02-28T12:33:35;4.40;96.80
31747;DHT22;18319;48.974;8.462;2023-02-28T12:36:07;4.50;97.00
31747;DHT22;18319;48.974;8.462;2023-02-28T12:38:43;4.70;96.80
31747;DHT22;18319;48.974;8.462;2023-02-28T12:41:13;5.00;97.30
31747;DHT22;18319;48.974;8.462;2023-02-28T12:43:44;5.40;97.20
31747;DHT22;18319;48.974;8.462;2023-02-28T12:46:14;5.50;96.50
31747;DHT22;18319;48.974;8.462;2023-02-28T12:48:46;5.40;94.60
31747;DHT22;18319;48.974;8.462;2023-02-28T12:51:16;5.70;95.10
31747;DHT22;18319;48.974;8.462;2023-02-28T12:53:57;6.00;96.10
31747;DHT22;18319;48.974;8.462;2023-02-28T12:56:33;5.80;93.80
31747;DHT22;18319;48.974;8.462;2023-02-28T12:59:07;5.70;94.40
31747;DHT22;18319;48.974;8.462;2023-02-28T13:01:57;5.50;95.10
31747;DHT22;18319;48.974;8.462;2023-02-28T13:04:37;5.50;94.70
31747;DHT22;18319;48.974;8.462;2023-02-28T13:07:32;5.30;94.30
31747;DHT22;18319;48.974;8.462;2023-02-28T13:10:07;5.40;94.30
31747;DHT22;18319;48.974;8.462;2023-02-28T13:12:34;5.60;94.50
31747;DHT22;18319;48.974;8.462;2023-02-28T13:15:06;5.70;94.20
31747;DHT22;18319;48.974;8.462;2023-02-28T13:17:39;6.00;94.00
31747;DHT22;18319;48.974;8.462;2023-02-28T13:20:16;6.10;93.60
31747;DHT22;18319;48.974;8.462;2023-02-28T13:22:45;6.20;93.00
31747;DHT22;18319;48.974;8.462;2023-02-28T13:34:41;6.50;92.80
31747;DHT22;18319;48.974;8.462;2023-02-28T13:37:34;6.40;92.10
31747;DHT22;18319;48.974;8.462;2023-02-28T13:40:27;6.40;91.50
31747;DHT22;18319;48.974;8.462;2023-02-28T13:42:54;6.40;92.70
31747;DHT22;18319;48.974;8.462;2023-02-28T13:45:30;6.30;92.10
31747;DHT22;18319;48.974;8.462;2023-02-28T13:48:04;6.20;92.30
31747;DHT22;18319;48.974;8.462;2023-02-28T13:50:42;6.10;93.00
31747;DHT22;18319;48.974;8.462;2023-02-28T13:53:34;6.00;92.10
31747;DHT22;18319;48.974;8.462;2023-02-28T13:56:17;6.10;93.10
31747;DHT22;18319;48.974;8.462;2023-02-28T13:58:54;6.20;91.40
31747;DHT22;18319;48.974;8.462;2023-02-28T14:01:40;6.20;92.20
31747;DHT22;18319;48.974;8.462;2023-02-28T14:07:18;6.20;92.10
31747;DHT22;18319;48.974;8.462;2023-02-28T14:09:55;6.40;93.40
31747;DHT22;18319;48.974;8.462;2023-02-28T14:12:55;6.30;92.20
31747;DHT22;18319;48.974;8.462;2023-02-28T14:18:25;6.30;92.80
31747;DHT22;18319;48.974;8.462;2023-02-28T14:21:14;6.00;92.20
31747;DHT22;18319;48.974;8.462;2023-02-28T14:24:02;5.70;93.00
31747;DHT22;18319;48.974;8.462;2023-02-28T14:26:41;5.60;93.80
31747;DHT22;18319;48.974;8.462;2023-02-28T14:29:21;5.60;93.40
31747;DHT22;18319;48.974;8.462;2023-02-28T14:31:57;5.40;93.50
31747;DHT22;18319;48.974;8.462;2023-02-28T14:34:35;5.40;93.60
31747;DHT22;18319;48.974;8.462;2023-02-28T14:37:03;5.40;93.10
31747;DHT22;18319;48.974;8.462;2023-02-28T14:39:31;5.40;93.80
31747;DHT22;18319;48.974;8.462;2023-02-28T14:41:59;5.40;93.90
31747;DHT22;18319;48.974;8.462;2023-02-28T14:44:30;5.30;93.70
31747;DHT22;18319;48.974;8.462;2023-02-28T14:46:59;5.30;93.80
31747;DHT22;18319;48.974;8.462;2023-02-28T14:49:32;5.40;93.50
31747;DHT22;18319;48.974;8.462;2023-02-28T14:52:07;5.50;93.70
31747;DHT22;18319;48.974;8.462;2023-02-28T14:54:37;5.50;93.60
31747;DHT22;18319;48.974;8.462;2023-02-28T14:57:05;5.70;94.10
31747;DHT22;18319;48.974;8.462;2023-02-28T14:59:33;5.90;94.50
31747;DHT22;18319;48.974;8.462;2023-02-28T15:02:21;6.00;93.80
31747;DHT22;18319;48.974;8.462;2023-02-28T15:04:55;5.90;93.10
31747;DHT22;18319;48.974;8.462;2023-02-28T15:07:23;5.80;94.00
31747;DHT22;18319;48.974;8.462;2023-02-28T15:10:10;5.70;93.10
31747;DHT22;18319;48.974;8.462;2023-02-28T15:12:37;5.60;93.50
31747;DHT22;18319;48.974;8.462;2023-02-28T15:15:06;5.50;94.50
31747;DHT22;18319;48.974;8.462;2023-02-28T15:17:42;5.50;94.70
31747;DHT22;18319;48.974;8.462;2023-02-28T15:20:12;5.40;93.90
31747;DHT22;18319;48.974;8.462;2023-02-28T15:22:40;5.30;93.80
31747;DHT22;18319;48.974;8.462;2023-02-28T15:25:14;5.30;93.90
31747;DHT22;18319;48.974;8.462;2023-02-28T15:27:45;5.20;93.60
31747;DHT22;18319;48.974;8.462;2023-02-28T15:30:17;5.10;93.80
31747;DHT22;18319;48.974;8.462;2023-02-28T15:32:44;5.00;93.90
31747;DHT22;18319;48.974;8.462;2023-02-28T15:35:20;5.00;93.80
31747;DHT22;18319;48.974;8.462;2023-02-28T15:37:50;4.90;94.10
31747;DHT22;18319;48.974;8.462;2023-02-28T15:40:25;4.80;94.00
31747;DHT22;18319;48.974;8.462;2023-02-28T15:43:02;4.90;94.20
31747;DHT22;18319;48.974;8.462;2023-02-28T15:45:36;4.80;94.50
31747;DHT22;18319;48.974;8.462;2023-02-28T15:48:16;4.80;94.50
31747;DHT22;18319;48.974;8.462;2023-02-28T15:50:44;4.70;94.80
31747;DHT22;18319;48.974;8.462;2023-02-28T15:53:15;4.70;95.60
31747;DHT22;18319;48.974;8.462;2023-02-28T15:55:44;4.60;95.10
31747;DHT22;18319;48.974;8.462;2023-02-28T15:58:12;4.60;94.80
31747;DHT22;18319;48.974;8.462;2023-02-28T16:00:39;4.60;95.40
31747;DHT22;18319;48.974;8.462;2023-02-28T16:03:23;4.50;95.10
31747;DHT22;18319;48.974;8.462;2023-02-28T16:06:09;4.50;95.70
31747;DHT22;18319;48.974;8.462;2023-02-28T16:08:36;4.40;96.30
31747;DHT22;18319;48.974;8.462;2023-02-28T16:11:04;4.30;96.80
31747;DHT22;18319;48.974;8.462;2023-02-28T16:13:31;4.30;96.30
31747;DHT22;18319;48.974;8.462;2023-02-28T16:15:57;4.30;96.50
31747;DHT22;18319;48.974;8.462;2023-02-28T16:18:26;4.20;96.20
31747;DHT22;18319;48.974;8.462;2023-02-28T16:20:52;4.30;96.40
31747;DHT22;18319;48.974;8.462;2023-02-28T16:23:19;4.20;96.20
31747;DHT22;18319;48.974;8.462;2023-02-28T16:25:46;4.20;96.20
31747;DHT22;18319;48.974;8.462;2023-02-28T16:28:18;4.10;96.00